createdAt,value
2018-11-06T06:08:52.776Z,2.90
2018-11-06T06:11:21.511Z,3.60
2018-11-06T06:13:50.358Z,6.27
2018-11-06T06:16:22.971Z,2.93
2018-11-06T06:18:58.465Z,5.47
2018-11-06T06:21:28.320Z,6.83
2018-11-06T06:24:00.676Z,3.97
2018-11-06T06:26:33.220Z,6.30
2018-11-06T06:29:02.341Z,3.70
2018-11-06T06:31:31.562Z,5.63
2018-11-06T06:34:01.137Z,2.63
2018-11-06T06:36:30.164Z,2.70
2018-11-06T06:38:59.050Z,2.57
2018-11-06T06:41:28.001Z,3.23
2018-11-06T06:43:56.988Z,3.03
2018-11-06T06:46:26.037Z,7.20
2018-11-06T06:48:55.221Z,9.43
2018-11-06T06:51:24.316Z,4.17
2018-11-06T06:53:53.311Z,5.17
2018-11-06T06:56:22.474Z,5.13
2018-11-06T06:58:51.379Z,4.50
2018-11-06T07:01:20.059Z,6.87
2018-11-06T07:03:48.930Z,5.67
2018-11-06T07:06:17.883Z,6.83
2018-11-06T07:08:46.743Z,8.53
2018-11-06T07:11:15.563Z,5.87
2018-11-06T07:13:44.302Z,5.30
2018-11-06T07:16:13.198Z,3.87
2018-11-06T07:18:41.939Z,5.03
2018-11-06T07:21:10.754Z,5.20
2018-11-06T07:23:39.522Z,4.33
2018-11-06T07:26:08.327Z,8.30
2018-11-06T07:28:37.300Z,7.27
2018-11-06T07:31:07.299Z,4.90
2018-11-06T07:33:36.058Z,3.77
2018-11-06T07:36:04.869Z,4.80
2018-11-06T07:38:33.583Z,5.13
2018-11-06T07:41:03.487Z,3.63
2018-11-06T07:43:34.066Z,3.87
2018-11-06T07:46:02.859Z,5.83
2018-11-06T07:48:31.555Z,4.30
2018-11-06T07:51:00.326Z,3.00
2018-11-06T07:53:29.108Z,7.87
2018-11-06T07:55:58.031Z,4.17
2018-11-06T07:58:26.908Z,4.87
2018-11-06T08:00:55.571Z,4.93
2018-11-06T08:03:24.311Z,3.27
2018-11-06T08:05:53.090Z,4.63
2018-11-06T08:08:21.919Z,5.50
2018-11-06T08:10:50.731Z,5.13
2018-11-06T08:13:19.568Z,4.70
2018-11-06T08:15:48.425Z,3.00
2018-11-06T08:18:17.227Z,4.10
2018-11-06T08:20:46.053Z,5.00
2018-11-06T08:23:14.915Z,4.53
2018-11-06T08:25:43.674Z,4.20
2018-11-06T08:28:12.353Z,6.00
2018-11-06T08:30:42.045Z,8.73
2018-11-06T08:33:10.806Z,5.87
2018-11-06T08:35:39.587Z,5.57
2018-11-06T08:38:08.236Z,4.00
2018-11-06T08:40:37.023Z,4.77
2018-11-06T08:43:15.907Z,4.40
2018-11-06T08:45:44.970Z,4.07
2018-11-06T08:48:21.049Z,7.53
2018-11-06T08:50:49.866Z,4.67
2018-11-06T08:53:18.958Z,6.80
2018-11-06T08:55:47.767Z,7.93
2018-11-06T08:58:16.631Z,4.83
2018-11-06T09:00:45.459Z,3.80
2018-11-06T09:03:14.234Z,6.00
2018-11-06T09:05:43.106Z,4.83
2018-11-06T09:08:11.905Z,6.67
2018-11-06T09:10:40.783Z,10.30
2018-11-06T09:13:09.563Z,4.90
2018-11-06T09:15:38.317Z,4.27
2018-11-06T09:18:21.340Z,10.40
2018-11-06T09:20:50.245Z,6.50
2018-11-06T09:23:27.480Z,4.37
2018-11-06T09:25:56.253Z,4.30
2018-11-06T09:28:24.998Z,3.27
2018-11-06T09:30:53.760Z,5.07
2018-11-06T09:33:22.711Z,4.23
2018-11-06T09:35:51.402Z,3.90
2018-11-06T09:38:32.602Z,3.57
2018-11-06T09:41:01.465Z,6.53
2018-11-06T09:43:30.262Z,3.40
2018-11-06T09:45:58.980Z,10.40
2018-11-06T09:48:28.262Z,3.97
2018-11-06T09:50:57.037Z,3.80
2018-11-06T09:53:25.803Z,6.77
2018-11-06T09:55:54.550Z,6.83
2018-11-06T09:58:23.287Z,3.33
2018-11-06T10:00:51.973Z,2.37
2018-11-06T10:03:20.743Z,4.40
2018-11-06T10:05:49.921Z,3.80
2018-11-06T10:08:18.721Z,3.17
2018-11-06T10:10:47.580Z,6.00
2018-11-06T10:13:16.319Z,3.50
2018-11-06T10:15:45.209Z,3.80
2018-11-06T10:18:14.149Z,6.33
2018-11-06T10:20:43.078Z,4.70
2018-11-06T10:23:11.763Z,5.00
2018-11-06T10:25:41.048Z,4.93
2018-11-06T10:28:09.944Z,6.60
2018-11-06T10:30:38.763Z,11.47
2018-11-06T10:33:07.435Z,8.43
2018-11-06T10:35:36.837Z,13.80
2018-11-06T10:38:06.001Z,8.20
2018-11-06T10:40:34.894Z,5.77
2018-11-06T10:43:03.671Z,6.77
2018-11-06T10:45:32.533Z,6.30
2018-11-06T10:48:01.320Z,6.57
2018-11-06T10:50:30.222Z,7.50
2018-11-06T10:52:58.962Z,9.23
2018-11-06T10:55:27.719Z,13.10
2018-11-06T10:57:56.898Z,8.30
2018-11-06T11:00:30.932Z,9.67
2018-11-06T11:03:04.876Z,9.20
2018-11-06T11:05:34.634Z,11.13
2018-11-06T11:08:03.443Z,7.10
2018-11-06T11:10:32.250Z,6.03
2018-11-06T11:13:00.999Z,6.73
2018-11-06T11:15:29.767Z,8.20
2018-11-06T11:17:58.474Z,9.90
2018-11-06T11:20:27.262Z,9.10
2018-11-06T11:22:56.040Z,12.30
2018-11-06T11:25:24.948Z,11.37
2018-11-06T11:27:54.876Z,12.10
2018-11-06T11:30:23.612Z,10.03
2018-11-06T11:32:52.341Z,8.17
2018-11-06T11:35:21.093Z,7.00
2018-11-06T11:37:49.992Z,9.73
2018-11-06T12:41:58.919Z,8.43
2018-11-06T12:44:28.722Z,9.47
2018-11-06T12:46:57.681Z,7.40
2018-11-06T12:49:26.526Z,11.00
2018-11-06T12:51:55.403Z,10.17
2018-11-06T12:54:24.231Z,8.20
2018-11-06T12:56:53.096Z,12.57
2018-11-06T12:59:22.228Z,11.13
2018-11-06T13:01:50.993Z,9.77
2018-11-06T13:04:19.859Z,12.40
2018-11-06T13:06:48.871Z,11.13
2018-11-06T13:09:17.614Z,11.70
2018-11-06T13:11:46.392Z,10.53
2018-11-06T13:14:15.196Z,12.43
2018-11-06T13:16:44.060Z,13.80
2018-11-06T13:19:12.894Z,12.73
2018-11-06T13:21:44.892Z,16.70
2018-11-06T13:24:13.726Z,11.37
2018-11-06T13:26:42.528Z,10.20
2018-11-06T13:29:11.552Z,14.60
2018-11-06T13:31:40.446Z,9.87
2018-11-06T13:34:09.945Z,12.20
2018-11-06T13:36:40.896Z,11.13
2018-11-06T13:39:11.439Z,12.80
2018-11-06T13:41:40.806Z,11.67
2018-11-06T13:44:09.873Z,12.07
2018-11-06T13:46:38.419Z,13.93
2018-11-06T13:49:07.290Z,15.90
2018-11-06T13:51:36.148Z,9.80
2018-11-06T13:54:05.098Z,10.10
2018-11-06T13:56:34.059Z,10.23
2018-11-06T13:59:03.127Z,9.90
2018-11-06T14:01:31.930Z,9.47
2018-11-06T14:04:01.056Z,8.93
2018-11-06T14:06:29.930Z,9.93
2018-11-06T14:08:58.934Z,12.63
2018-11-06T14:11:29.466Z,9.63
2018-11-06T14:13:58.745Z,10.30
2018-11-06T14:16:33.204Z,9.00
2018-11-06T14:19:02.535Z,12.37
2018-11-06T14:21:31.837Z,8.50
2018-11-06T14:24:00.630Z,8.80
2018-11-06T14:26:29.720Z,11.10
2018-11-06T14:28:58.770Z,9.77
2018-11-06T14:31:28.846Z,7.33
2018-11-06T17:46:07.222Z,7.37
2018-11-06T17:48:37.340Z,6.37
2018-11-06T19:28:56.005Z,6.77
2018-11-06T19:31:24.783Z,6.80
2018-11-06T19:33:54.275Z,5.67
2018-11-06T19:36:25.114Z,7.27
2018-11-06T19:38:54.450Z,5.03
2018-11-06T19:41:26.660Z,8.03
2018-11-06T19:43:58.067Z,5.27
2018-11-06T19:46:27.466Z,5.23
2018-11-06T19:48:56.867Z,6.67
2018-11-06T19:51:25.963Z,5.93
2018-11-06T19:53:55.085Z,5.60
2018-11-06T19:56:24.213Z,8.73
2018-11-06T19:58:53.314Z,5.60
2018-11-06T20:01:22.284Z,7.87
2018-11-06T20:03:51.555Z,6.63
2018-11-06T20:06:20.636Z,6.23
2018-11-06T20:08:49.816Z,8.17
2018-11-06T20:11:18.995Z,8.83
2018-11-06T20:13:48.114Z,6.07
2018-11-06T20:16:17.107Z,10.60
2018-11-06T20:18:46.592Z,9.70
2018-11-06T20:21:15.660Z,5.37
2018-11-06T20:23:46.254Z,4.70
2018-11-06T20:26:15.907Z,5.97
2018-11-06T20:28:45.350Z,6.50
2018-11-06T20:31:15.661Z,5.10
2018-11-06T20:33:45.124Z,6.37
2018-11-06T20:36:21.019Z,6.97
2018-11-06T20:39:00.014Z,7.13
2018-11-06T20:41:30.657Z,6.53
2018-11-06T20:44:01.425Z,6.60
2018-11-06T20:47:00.100Z,5.10
2018-11-06T20:49:29.218Z,8.63
2018-11-06T20:51:58.179Z,5.87
2018-11-06T20:54:31.670Z,5.93
2018-11-06T20:57:08.051Z,6.93
2018-11-06T20:59:37.461Z,6.83
2018-11-06T21:02:08.466Z,5.70
2018-11-06T21:04:37.631Z,6.43
2018-11-06T21:07:09.471Z,6.13
2018-11-06T21:09:43.489Z,7.37
2018-11-06T21:12:13.324Z,6.13
2018-11-06T21:14:42.484Z,5.97
2018-11-06T21:17:13.968Z,5.53
2018-11-06T23:48:56.919Z,7.93
2018-11-06T23:51:26.650Z,10.37
2018-11-06T23:53:55.403Z,6.07
2018-11-06T23:56:24.285Z,5.97
2018-11-06T23:58:53.160Z,6.13
